map of MST home
MST - Airport
Location
City:  Maastricht, Limburg, Netherlands
Name:Zuid-Limburg
ICAO:EHBK
IATA:MST

Details
Type:Airport (Aerodrome, Airfield)
Use:Public/Civil, International (customs port of entry)
Latitude:5054'42"N (50.911658)
Longitude:546'13"E (5.770144)
Datum:WGS 1984
Elevation:375 ft (114 m)
Variation:1.84E (WMM2015v2 magnetic declination)
0.18 annual change
Runways:1
Longest:8202 × 148 ft (2500 × 45 m), paved

Time
Time Zone:UTC+1 (DST+2)
Local Time:

Weather
METAR:EHBK 041355Z AUTO 21018KT 180V240 9999 NSC 04/M03 Q1024 NOSIG
TAF:EHBK 041115Z 0412/0518 20012G22KT CAVOK PROB40
TEMPO 0415/0419 4000 RASN BKN020 PROB40
TEMPO 0419/0512 6000 -RADZ BR BKN012
BECMG 0423/0502 21007KT PROB30 0503/0509 4000 BR BKN006

Related Locations
Nearby:
Farthest:CHT: 11929 mi / 19197 km
Waitangi [Tuuta], CIT, NZ

Find:

   beyond  
but within

Other Information
Maps:
NOTAMs:
Links:
Sources:

  
  • flag of Netherlands
  • flag of Limburg
  • flag of Maastricht
  

Sectional Chart

Flight Planning
at skyvector.com

Satellite Image

Google Maps Satellite view

 

Copyright © 2004-2019 Karl L. Swartz. All rights reserved.
The Great Circle Mapper name and logo are trademarks of the Great Circle Mapper.
All other trademarks mentioned herein belong to their respective owners.
Please see credits for attibutions and further copyright information.

  Follow gcmap on Facebook Follow gcmap on Twitter GCmap on LinkedIn

hCard Microformat

Geo Microformat